fecha-hora | temperatura | viento dirección-velocidad-rachas | humedad | presión

  • 11-04-2019 21:00:00 | 15.40°C | Este-15.00 km/h - 22.00 km/h | 72.00% | 1012.80 hPa
  • 11-04-2019 20:00:00 | 16.00°C | Este-17.00 km/h - 30.00 km/h | 57.00% | 1011.90 hPa
  • 11-04-2019 19:00:00 | 17.00°C | Este-19.00 km/h - 26.00 km/h | 48.00% | 1012.00 hPa
  • 11-04-2019 18:00:00 | 17.90°C | Este-19.00 km/h - 26.00 km/h | 38.00% | 1011.70 hPa
  • 11-04-2019 17:00:00 | 19.00°C | Sudeste-11.00 km/h - 18.00 km/h | 34.00% | 1011.10 hPa
  • 11-04-2019 16:00:00 | 19.00°C | Sur-13.00 km/h - 24.00 km/h | 36.00% | 1011.30 hPa
  • 11-04-2019 15:00:00 | 18.30°C | Sur-13.00 km/h - 22.00 km/h | 40.00% | 1011.60 hPa
  • 11-04-2019 14:00:00 | 18.40°C | Sur-11.00 km/h - 24.00 km/h | 49.00% | 1011.90 hPa
  • 11-04-2019 13:00:00 | 19.20°C | Sur-10.00 km/h - 22.00 km/h | 36.00% | 1012.00 hPa
  • 11-04-2019 12:00:00 | 18.20°C | Norte-14.00 km/h - 24.00 km/h | 38.00% | 1012.20 hPa
  • 11-04-2019 11:00:00 | 15.40°C | Norte-14.00 km/h - 24.00 km/h | 50.00% | 1012.30 hPa
  • 11-04-2019 10:00:00 | 13.00°C | Norte-15.00 km/h - 21.00 km/h | 60.00% | 1012.30 hPa
  • 11-04-2019 09:00:00 | 12.30°C | Norte-10.00 km/h - 21.00 km/h | 61.00% | 1011.90 hPa
  • 11-04-2019 08:00:00 | 10.70°C | Norte-15.00 km/h - 24.00 km/h | 68.00% | 1011.50 hPa
  • 11-04-2019 07:00:00 | 10.30°C | Norte-5.00 km/h - 22.00 km/h | 75.00% | 1011.10 hPa
  • 11-04-2019 06:00:00 | 11.00°C | Norte-11.00 km/h - 22.00 km/h | 72.00% | 1011.10 hPa
  • 11-04-2019 05:00:00 | 11.10°C | Norte-14.00 km/h - 22.00 km/h | 81.00% | 1011.10 hPa
  • 11-04-2019 04:00:00 | 11.30°C | Norte-12.00 km/h - 21.00 km/h | 82.00% | 1011.20 hPa
  • 11-04-2019 03:00:00 | 10.90°C | Norte-12.00 km/h - 24.00 km/h | 83.00% | 1011.50 hPa
  • 11-04-2019 02:00:00 | 10.90°C | Norte-16.00 km/h - 22.00 km/h | 81.00% | 1011.80 hPa
  • 11-04-2019 01:00:00 | 10.80°C | Norte-9.00 km/h - 17.00 km/h | 85.00% | 1012.00 hPa
  • 11-04-2019 00:00:00 | 11.90°C | Noroeste-10.00 km/h - 11.00 km/h | 83.00% | 1011.90 hPa
  • 10-04-2019 23:00:00 | 13.50°C | Este-8.00 km/h - 15.00 km/h | 75.00% | 1012.10 hPa
  • 10-04-2019 22:00:00 | 13.20°C | Noroeste-3.00 km/h - 18.00 km/h | 73.00% | 1011.70 hPa
    • diseño web asturias Información sobre el estado de las mareas, altura de la marejada, temperatura del agua y otros datos de Gijón en Asturias.

      Surf Gijón